Terminal Aerodrome Forecast
Issued by NWS Wilmington, OH

Current Version | Previous Version | Text Only | Print | Product List | Glossary Off
Versions: 1 2 3 4 5 6 7 8 9 10 11 12 13 14 15 16 17 18 19 20 21 22 23 24 25 26 27 28

804
FTUS41 KILN 220533
TAFCVG
TAF
KCVG 220533Z 2206/2312 36012G22KT P6SM SKC
     FM221300 04012G18KT P6SM SKC
     FM221800 05010KT P6SM SKC
     FM230000 06005KT P6SM SCT250
     FM230600 09005KT P6SM SCT150=

USA.gov is the U.S. government's official web portal to all federal, state and local government web resources and services.